createdAt,value
2023-11-24T00:01:39.428Z,101371.66
2023-11-24T00:04:07.953Z,101355.66
2023-11-24T00:06:37.443Z,101355.59
2023-11-24T00:09:04.435Z,101346.69
2023-11-24T00:11:35.162Z,101341.41
2023-11-24T00:14:09.034Z,101346.88
2023-11-24T00:16:40.237Z,101349.53
2023-11-24T00:19:08.852Z,101354.03
2023-11-24T00:21:42.232Z,101346.06
2023-11-24T00:24:10.442Z,101338.91
2023-11-24T00:26:38.536Z,101346.06
2023-11-24T00:29:06.756Z,101341.66
2023-11-24T00:31:34.932Z,101357.72
2023-11-24T00:34:03.218Z,101344.41
2023-11-24T00:36:32.082Z,101345.31
2023-11-24T00:39:01.485Z,101344.41
2023-11-24T00:41:30.137Z,101344.41
2023-11-24T00:43:58.292Z,101337.34
2023-11-24T00:46:26.315Z,101325.78
2023-11-24T00:48:54.351Z,101332.84
2023-11-24T00:51:22.473Z,101318.59
2023-11-24T00:53:50.726Z,101321.28
2023-11-24T00:56:20.142Z,101311.63
2023-11-24T00:58:49.741Z,101316.88
2023-11-24T01:01:18.008Z,101313.41
2023-11-24T01:03:46.558Z,101308.94
2023-11-24T01:06:15.019Z,101308.84
2023-11-24T01:08:45.894Z,101304.34
2023-11-24T01:11:13.829Z,101301.78
2023-11-24T01:13:47.166Z,101299.00
2023-11-24T01:16:15.890Z,101299.88
2023-11-24T01:18:43.966Z,101311.44
2023-11-24T01:21:13.022Z,101314.09
2023-11-24T01:23:43.205Z,101309.72
2023-11-24T01:26:13.031Z,101309.72
2023-11-24T01:28:41.413Z,101307.03
2023-11-24T01:31:10.731Z,101302.63
2023-11-24T01:33:39.669Z,101291.94
2023-11-24T01:36:10.950Z,101307.13
2023-11-24T01:38:41.734Z,101308.94
2023-11-24T01:41:10.198Z,101307.13
2023-11-24T01:43:39.014Z,101309.88
2023-11-24T01:46:11.178Z,101306.34
2023-11-24T01:48:39.292Z,101303.66
2023-11-24T01:51:08.161Z,101301.06
2023-11-24T01:53:36.349Z,101306.44
2023-11-24T01:56:04.558Z,101300.22
2023-11-24T01:58:32.736Z,101304.72
2023-11-24T02:01:00.807Z,101297.53
2023-11-24T02:03:30.327Z,101302.03
2023-11-24T02:05:58.465Z,101286.03
2023-11-24T02:08:26.579Z,101278.97
2023-11-24T02:10:54.925Z,101277.16
2023-11-24T02:13:26.803Z,101269.13
2023-11-24T02:15:57.761Z,101281.63
2023-11-24T02:18:26.630Z,101276.34
2023-11-24T02:20:56.002Z,101270.13
2023-11-24T02:23:25.711Z,101267.47
2023-11-24T02:25:53.758Z,101269.28
2023-11-24T02:28:21.716Z,101267.56
2023-11-24T02:30:49.711Z,101260.50
2023-11-24T02:33:20.065Z,101262.22
2023-11-24T02:35:48.596Z,101255.13
2023-11-24T02:38:16.682Z,101262.31
2023-11-24T02:40:46.059Z,101260.50
2023-11-24T02:43:13.998Z,101252.53
2023-11-24T02:45:42.536Z,101240.97
2023-11-24T02:48:11.962Z,101249.00
2023-11-24T02:50:40.100Z,101238.28
2023-11-24T02:53:08.089Z,101246.31
2023-11-24T02:55:36.072Z,101239.16
2023-11-24T02:58:05.670Z,101243.63
2023-11-24T03:00:33.979Z,101240.09
2023-11-24T03:03:03.341Z,101241.06
2023-11-24T03:05:31.788Z,101230.50
2023-11-24T03:07:59.780Z,101230.41
2023-11-24T03:10:28.158Z,101228.69
2023-11-24T03:12:56.137Z,101210.91
2023-11-24T03:15:26.408Z,101209.22
2023-11-24T03:17:54.449Z,101205.63
2023-11-24T03:20:23.495Z,101205.63
2023-11-24T03:22:51.452Z,101202.09
2023-11-24T03:25:19.461Z,101193.22
2023-11-24T03:27:47.480Z,101198.66
2023-11-24T03:30:15.829Z,101198.56
2023-11-24T03:32:49.559Z,101200.38
2023-11-24T03:35:18.141Z,101206.69
2023-11-24T03:37:46.116Z,101219.03
2023-11-24T03:40:14.240Z,101216.38
2023-11-24T03:42:42.820Z,101227.25
2023-11-24T03:45:12.297Z,101219.38
2023-11-24T03:47:40.928Z,101219.31
2023-11-24T03:50:11.632Z,101228.09
2023-11-24T03:52:39.724Z,101231.63
2023-11-24T03:55:12.565Z,101226.22
2023-11-24T03:57:45.338Z,101234.16
2023-11-24T04:00:14.694Z,101226.97
2023-11-24T04:02:43.800Z,101222.47
2023-11-24T04:05:14.580Z,101220.56
2023-11-24T04:07:42.664Z,101211.59
2023-11-24T04:10:13.550Z,101216.00
2023-11-24T04:12:51.003Z,101210.56
2023-11-24T04:15:19.009Z,101214.09
2023-11-24T04:17:47.979Z,101204.34
2023-11-24T04:20:17.496Z,101199.84
2023-11-24T04:22:45.557Z,101193.75
2023-11-24T04:25:13.521Z,101191.06
2023-11-24T04:27:41.501Z,101186.56
2023-11-24T04:30:10.956Z,101175.06
2023-11-24T04:32:42.670Z,101177.75
2023-11-24T04:35:13.834Z,101175.97
2023-11-24T04:37:43.185Z,101172.41
2023-11-24T04:40:13.776Z,101159.03
2023-11-24T04:42:41.723Z,101151.00
2023-11-24T04:45:12.287Z,101159.03
2023-11-24T04:47:43.314Z,101152.06
2023-11-24T04:50:11.841Z,101151.94
2023-11-24T04:52:39.883Z,101136.84
2023-11-24T04:55:10.222Z,101131.50
2023-11-24T04:57:38.339Z,101136.00
2023-11-24T05:00:10.100Z,101128.94
2023-11-24T05:02:38.136Z,101116.41
2023-11-24T05:05:07.346Z,101115.47
2023-11-24T05:07:35.573Z,101118.22
2023-11-24T05:10:04.610Z,101128.03
2023-11-24T05:12:34.201Z,101126.25
2023-11-24T05:15:04.446Z,101134.28
2023-11-24T05:17:32.484Z,101127.13
2023-11-24T05:20:04.363Z,101133.38
2023-11-24T05:22:32.376Z,101133.47
2023-11-24T05:25:00.552Z,101133.47
2023-11-24T05:27:28.596Z,101131.63
2023-11-24T05:29:57.973Z,101131.63
2023-11-24T05:32:25.950Z,101126.28
2023-11-24T05:34:54.979Z,101133.47
2023-11-24T05:37:22.985Z,101129.91
2023-11-24T05:39:51.141Z,101132.59
2023-11-24T05:42:19.185Z,101134.47
2023-11-24T05:44:47.201Z,101139.75
2023-11-24T05:47:16.538Z,101158.50
2023-11-24T05:49:45.522Z,101149.59
2023-11-24T05:52:16.771Z,101136.13
2023-11-24T05:54:46.386Z,101143.28
2023-11-24T05:57:14.499Z,101146.81
2023-11-24T05:59:42.423Z,101143.28
2023-11-24T06:02:11.093Z,101132.59
2023-11-24T06:04:43.476Z,101124.56
2023-11-24T06:07:11.641Z,101116.53
2023-11-24T06:09:39.578Z,101108.53
2023-11-24T06:12:10.414Z,101108.53
2023-11-24T06:14:38.926Z,101108.53
2023-11-24T06:17:07.861Z,101111.19
2023-11-24T06:19:35.862Z,101108.53
2023-11-24T06:22:05.700Z,101112.06
2023-11-24T06:24:33.734Z,101102.31
2023-11-24T06:27:01.701Z,101091.63
2023-11-24T06:29:29.686Z,101110.25
2023-11-24T06:31:57.717Z,101112.06
2023-11-24T06:34:26.137Z,101112.91
2023-11-24T06:36:54.250Z,101111.09
2023-11-24T06:39:23.617Z,101121.78
2023-11-24T06:41:51.637Z,101114.72
2023-11-24T06:44:20.114Z,101108.38
2023-11-24T06:46:48.257Z,101104.75
2023-11-24T06:49:19.265Z,101105.72
2023-11-24T06:51:49.614Z,101111.06
2023-11-24T06:54:18.853Z,101114.59
2023-11-24T06:56:48.276Z,101112.00
2023-11-24T06:59:19.406Z,101110.34
2023-11-24T07:01:47.542Z,101115.56
2023-11-24T07:04:19.958Z,101104.75
2023-11-24T07:06:48.124Z,101104.84
2023-11-24T07:09:18.619Z,101105.38
2023-11-24T07:11:49.497Z,101103.31
2023-11-24T07:14:17.594Z,101101.09
2023-11-24T07:16:45.569Z,101096.53
2023-11-24T07:19:13.603Z,101104.19
2023-11-24T07:21:41.696Z,101103.06
2023-11-24T07:24:10.050Z,101110.94
2023-11-24T07:26:38.072Z,101111.72
2023-11-24T07:29:10.151Z,101123.19
2023-11-24T07:31:38.146Z,101127.50
2023-11-24T07:34:06.332Z,101122.91
2023-11-24T07:36:36.936Z,101112.16
2023-11-24T07:39:05.556Z,101105.84
2023-11-24T07:41:33.694Z,101103.03
2023-11-24T07:44:08.506Z,101093.09
2023-11-24T07:46:37.995Z,101088.53
2023-11-24T07:49:06.258Z,101089.28
2023-11-24T07:51:34.229Z,101091.00
2023-11-24T07:54:04.212Z,101090.94
2023-11-24T07:56:33.005Z,101082.81
2023-11-24T07:59:01.085Z,101055.13
2023-11-24T08:01:31.763Z,101060.38
2023-11-24T08:04:01.562Z,101061.25
2023-11-24T08:06:30.874Z,101054.00
2023-11-24T08:09:04.566Z,101051.34
2023-11-24T08:11:33.241Z,101052.09
2023-11-24T08:14:01.709Z,101052.94
2023-11-24T08:16:29.843Z,101055.56
2023-11-24T08:18:57.985Z,101055.56
2023-11-24T08:21:27.359Z,101057.28
2023-11-24T08:23:55.714Z,101050.97
2023-11-24T08:26:23.749Z,101053.47
2023-11-24T08:28:51.841Z,101050.00
2023-11-24T08:31:20.682Z,101041.13
2023-11-24T08:33:50.105Z,101050.00
2023-11-24T08:36:18.200Z,101062.44
2023-11-24T08:38:47.514Z,101059.69
2023-11-24T08:41:26.825Z,101058.72
2023-11-24T08:44:05.855Z,101054.16
2023-11-24T08:46:34.179Z,101049.66
2023-11-24T08:49:03.213Z,101051.38
2023-11-24T08:51:31.271Z,101048.69
2023-11-24T08:54:00.572Z,101053.13
2023-11-24T08:56:29.925Z,101052.16
2023-11-24T08:58:57.867Z,101053.88
2023-11-24T09:01:25.927Z,101055.59
2023-11-24T09:03:55.602Z,101055.59
2023-11-24T09:06:28.117Z,101039.47
2023-11-24T09:08:57.870Z,101040.31
2023-11-24T09:11:27.841Z,101031.34
2023-11-24T09:13:55.926Z,101031.34
2023-11-24T09:16:24.111Z,101041.06
2023-11-24T09:18:52.238Z,101038.41
2023-11-24T09:21:20.241Z,101040.16
2023-11-24T09:23:48.668Z,101035.53
2023-11-24T09:26:16.646Z,101030.19
2023-11-24T09:28:45.922Z,101022.09
2023-11-24T09:31:17.150Z,101027.34
2023-11-24T09:33:45.166Z,101023.69
2023-11-24T09:36:14.065Z,101018.34
2023-11-24T09:38:42.428Z,101014.72
2023-11-24T09:41:12.760Z,101009.34
2023-11-24T09:43:41.084Z,101024.50
2023-11-24T09:46:12.038Z,101015.59
2023-11-24T09:48:43.264Z,101029.84
2023-11-24T09:51:18.121Z,101035.94
2023-11-24T09:53:46.981Z,101032.41
2023-11-24T09:56:15.014Z,101026.97
2023-11-24T09:58:43.556Z,101040.34
2023-11-24T10:01:17.618Z,101026.09
2023-11-24T10:03:51.746Z,101028.72
2023-11-24T10:06:20.195Z,101016.25
2023-11-24T10:08:48.795Z,101018.94
2023-11-24T10:11:24.117Z,101017.22
2023-11-24T10:13:52.335Z,101025.25
2023-11-24T10:16:23.356Z,101017.22
2023-11-24T10:18:52.673Z,101025.25
2023-11-24T10:21:29.916Z,101010.91
2023-11-24T10:24:02.191Z,101003.81
2023-11-24T10:26:30.773Z,101008.16
2023-11-24T10:28:59.361Z,101014.34
2023-11-24T10:31:31.927Z,101003.66
2023-11-24T10:34:01.373Z,101000.00
2023-11-24T10:36:32.596Z,100995.63
2023-11-24T10:39:05.630Z,100993.91
2023-11-24T10:41:40.392Z,100998.28
2023-11-24T10:44:12.483Z,100982.22
2023-11-24T10:46:47.083Z,100979.56
2023-11-24T10:49:22.354Z,100971.00
2023-11-24T10:52:00.145Z,100977.09
2023-11-24T10:54:35.189Z,100958.66
2023-11-24T10:57:07.363Z,100967.13
2023-11-24T10:59:36.254Z,100963.16
2023-11-24T11:02:10.553Z,100978.78
2023-11-24T11:04:45.430Z,100971.94
2023-11-24T11:07:27.746Z,100977.28
2023-11-24T11:10:00.061Z,100980.94
2023-11-24T11:12:42.299Z,100970.59
2023-11-24T11:15:12.077Z,100971.03
2023-11-24T11:17:42.642Z,100972.31
2023-11-24T11:20:16.362Z,100967.25
2023-11-24T11:22:45.127Z,100961.97
2023-11-24T11:25:39.759Z,100937.56
2023-11-24T11:28:36.632Z,100937.91
2023-11-24T11:31:23.650Z,100932.03
2023-11-24T11:33:53.991Z,100928.06
2023-11-24T11:36:26.859Z,100922.34
2023-11-24T11:38:55.778Z,100925.81
2023-11-24T11:41:42.253Z,100948.13
2023-11-24T11:44:25.952Z,100927.09
2023-11-24T11:47:14.349Z,100917.97
2023-11-24T11:49:44.831Z,100912.16
2023-11-24T11:52:13.486Z,100885.03
2023-11-24T11:54:44.704Z,100884.69
2023-11-24T11:57:13.947Z,100888.50
2023-11-24T11:59:48.166Z,100880.06
2023-11-24T12:02:19.474Z,100884.28
2023-11-24T12:04:52.401Z,100901.00
2023-11-24T12:07:23.825Z,100894.44
2023-11-24T12:09:52.479Z,100898.59
2023-11-24T12:12:24.067Z,100879.59
2023-11-24T12:14:55.411Z,100890.00
2023-11-24T12:17:25.054Z,100879.97
2023-11-24T12:19:55.668Z,100862.78
2023-11-24T12:22:29.500Z,100859.94
2023-11-24T12:24:57.879Z,100846.38
2023-11-24T12:27:28.495Z,100839.09
2023-11-24T12:29:56.574Z,100845.22
2023-11-24T12:32:27.830Z,100845.13
2023-11-24T12:35:01.065Z,100838.91
2023-11-24T12:37:30.709Z,100810.06
2023-11-24T12:39:58.887Z,100819.97
2023-11-24T12:42:30.745Z,100831.47
2023-11-24T12:45:00.338Z,100838.41
2023-11-24T12:50:03.093Z,100839.00
2023-11-24T12:52:33.000Z,100849.50
2023-11-24T12:55:02.900Z,100869.88
2023-11-24T12:57:31.036Z,100885.94
2023-11-24T13:00:06.909Z,100877.81
2023-11-24T13:02:38.958Z,100852.78
2023-11-24T13:05:09.959Z,100847.31
2023-11-24T13:07:38.243Z,100838.31
2023-11-24T13:10:11.254Z,100820.44
2023-11-24T13:12:40.376Z,100824.09
2023-11-24T13:15:10.569Z,100814.22
2023-11-24T13:17:39.516Z,100828.47
2023-11-24T13:20:12.317Z,100841.00
2023-11-24T13:22:40.966Z,100823.13
2023-11-24T13:25:10.736Z,100822.19
2023-11-24T13:27:39.671Z,100843.59
2023-11-24T13:30:12.848Z,100857.84
2023-11-24T13:32:41.915Z,100872.09
2023-11-24T13:35:15.232Z,100845.13
2023-11-24T13:37:44.237Z,100876.19
2023-11-24T13:40:14.096Z,100845.81
2023-11-24T13:42:43.031Z,100827.91
2023-11-24T13:45:13.796Z,100834.13
2023-11-24T13:47:42.832Z,100823.31
2023-11-24T13:50:12.962Z,100828.59
2023-11-24T13:52:42.905Z,100815.19
2023-11-24T13:55:13.576Z,100808.09
2023-11-24T13:57:41.850Z,100811.66
2023-11-24T14:00:12.545Z,100816.06
2023-11-24T14:02:41.491Z,100819.69
2023-11-24T14:05:15.207Z,100825.81
2023-11-24T14:07:45.689Z,100814.25
2023-11-24T14:10:17.366Z,100811.44
2023-11-24T14:12:47.542Z,100808.69
2023-11-24T14:15:16.028Z,100804.94
2023-11-24T14:17:44.031Z,100792.53
2023-11-24T14:20:14.643Z,100796.91
2023-11-24T14:22:43.249Z,100797.56
2023-11-24T14:25:12.351Z,100795.75
2023-11-24T14:27:41.251Z,100801.09
2023-11-24T14:30:10.433Z,100794.03
2023-11-24T14:32:38.573Z,100806.94
2023-11-24T14:35:08.029Z,100804.28
2023-11-24T14:37:39.748Z,100788.22
2023-11-24T14:40:20.000Z,100778.38
2023-11-24T14:42:50.768Z,100778.38
2023-11-24T14:45:21.387Z,100782.22
2023-11-24T14:47:50.799Z,100775.22
2023-11-24T14:50:20.539Z,100764.41
2023-11-24T14:52:49.915Z,100758.00
2023-11-24T14:55:18.271Z,100765.84
2023-11-24T14:57:47.397Z,100806.28
2023-11-24T15:00:30.502Z,100869.41
2023-11-24T15:03:02.093Z,100900.38
2023-11-24T15:05:34.418Z,100897.63
2023-11-24T15:08:11.396Z,100858.78
2023-11-24T15:10:43.218Z,100858.00
2023-11-24T15:13:11.438Z,100860.88
2023-11-24T15:15:41.033Z,100860.97
2023-11-24T15:18:12.112Z,100871.41
2023-11-24T15:20:41.282Z,100857.84
2023-11-24T15:23:12.690Z,100860.56
2023-11-24T15:25:49.011Z,100842.78
2023-11-24T15:28:22.253Z,100838.47
2023-11-24T15:30:50.814Z,100830.44
2023-11-24T15:33:19.964Z,100830.44
2023-11-24T15:35:49.834Z,100828.66
2023-11-24T15:38:21.204Z,100824.22
2023-11-24T15:40:51.849Z,100829.50
2023-11-24T15:43:20.528Z,100824.22
2023-11-24T15:45:54.769Z,100828.00
2023-11-24T15:48:22.882Z,100827.03
2023-11-24T15:50:50.932Z,100835.91
2023-11-24T15:53:22.998Z,100844.81
2023-11-24T15:55:52.441Z,100839.38
2023-11-24T15:58:26.184Z,100849.00
2023-11-24T16:00:57.557Z,100865.94
2023-11-24T16:03:26.019Z,100867.88
2023-11-24T16:05:56.240Z,100867.88
2023-11-24T16:08:33.827Z,100869.41
2023-11-24T16:11:10.836Z,100873.72
2023-11-24T16:13:42.371Z,100872.75
2023-11-24T16:16:10.869Z,100862.13
2023-11-24T16:18:41.635Z,100873.81
2023-11-24T16:21:09.624Z,100882.69
2023-11-24T16:23:39.055Z,100865.78
2023-11-24T16:26:07.156Z,100866.63
2023-11-24T16:28:35.288Z,100850.47
2023-11-24T16:31:06.395Z,100837.84
2023-11-24T16:33:35.927Z,100831.50
2023-11-24T16:36:04.959Z,100822.53
2023-11-24T16:38:33.290Z,100825.22
2023-11-24T16:41:05.623Z,100813.53
2023-11-24T16:43:33.698Z,100814.38
2023-11-24T16:46:08.198Z,100825.97
2023-11-24T16:48:36.401Z,100823.19
2023-11-24T16:51:04.812Z,100826.72
2023-11-24T16:53:32.869Z,100814.31
2023-11-24T16:56:05.030Z,100801.97
2023-11-24T16:58:36.249Z,100810.84
2023-11-24T17:01:04.289Z,100801.09
2023-11-24T17:03:32.667Z,100795.75
2023-11-24T17:06:00.712Z,100789.81
2023-11-24T17:08:28.748Z,100808.38
2023-11-24T17:10:56.698Z,100791.44
2023-11-24T17:13:26.202Z,100795.94
2023-11-24T17:15:55.080Z,100811.03
2023-11-24T17:18:23.130Z,100823.59
2023-11-24T17:20:51.351Z,100825.41
2023-11-24T17:23:19.299Z,100817.38
2023-11-24T17:25:49.320Z,100806.66
2023-11-24T17:28:19.013Z,100802.16
2023-11-24T17:30:48.477Z,100817.38
2023-11-24T17:33:16.532Z,100805.69
2023-11-24T17:35:45.695Z,100798.63
2023-11-24T17:38:16.253Z,100806.66
2023-11-24T17:40:45.212Z,100809.22
2023-11-24T17:43:13.256Z,100804.84
2023-11-24T17:45:43.505Z,100812.00
2023-11-24T17:48:13.053Z,100823.59
2023-11-24T17:50:41.002Z,100822.72
2023-11-24T17:53:09.974Z,100819.06
2023-11-24T17:55:38.011Z,100814.59
2023-11-24T17:58:06.006Z,100816.41
2023-11-24T18:00:34.076Z,100814.59
2023-11-24T18:03:02.143Z,100800.31
2023-11-24T18:05:31.621Z,100785.09
2023-11-24T18:08:03.662Z,100770.88
2023-11-24T18:10:32.019Z,100775.25
2023-11-24T18:13:00.346Z,100780.59
2023-11-24T18:15:28.457Z,100774.31
2023-11-24T18:17:56.707Z,100777.84
2023-11-24T18:20:26.160Z,100775.25
2023-11-24T18:22:56.096Z,100791.25
2023-11-24T18:25:26.700Z,100783.22
2023-11-24T18:27:54.719Z,100785.03
2023-11-24T18:30:22.826Z,100783.09
2023-11-24T18:32:50.949Z,100783.09
2023-11-24T18:35:20.024Z,100792.97
2023-11-24T18:37:48.009Z,100782.16
2023-11-24T18:40:18.196Z,100803.47
2023-11-24T18:42:46.872Z,100825.78
2023-11-24T18:45:15.398Z,100807.00
2023-11-24T18:47:43.407Z,100795.31
2023-11-24T18:50:12.262Z,100782.72
2023-11-24T18:52:46.429Z,100781.84
2023-11-24T18:55:14.599Z,100790.75
2023-11-24T18:57:46.862Z,100805.00
2023-11-24T19:00:19.891Z,100911.13
2023-11-24T19:02:49.096Z,100907.56
2023-11-24T19:05:20.432Z,100910.34
2023-11-24T19:07:48.958Z,100938.97
2023-11-24T19:10:19.623Z,100956.94
2023-11-24T19:12:52.360Z,100942.69
2023-11-24T19:15:21.187Z,100951.56
2023-11-24T19:17:49.486Z,100957.03
2023-11-24T19:20:18.943Z,100964.22
2023-11-24T19:22:47.342Z,100956.19
2023-11-24T19:25:15.641Z,100958.00
2023-11-24T19:27:43.684Z,100954.38
2023-11-24T19:30:13.927Z,100937.44
2023-11-24T19:32:42.086Z,100884.72
2023-11-24T19:35:12.359Z,100883.75
2023-11-24T19:37:42.131Z,100878.19
2023-11-24T19:40:11.292Z,100881.72
2023-11-24T19:42:39.309Z,100878.84
2023-11-24T19:45:10.306Z,100901.94
2023-11-24T19:47:39.793Z,100897.31
2023-11-24T19:50:09.078Z,100907.06
2023-11-24T19:52:37.131Z,100912.22
2023-11-24T19:55:05.718Z,100903.22
2023-11-24T19:57:34.756Z,100903.22
2023-11-24T20:00:08.774Z,100921.78
2023-11-24T20:02:41.023Z,100923.53
2023-11-24T20:05:09.926Z,100913.56
2023-11-24T20:07:37.921Z,100923.44
2023-11-24T20:10:07.963Z,100917.09
2023-11-24T20:12:36.048Z,100933.09
2023-11-24T20:15:04.189Z,100947.38
2023-11-24T20:17:35.114Z,100945.44
2023-11-24T20:20:09.824Z,100944.56
2023-11-24T20:22:40.788Z,100940.00
2023-11-24T20:25:10.246Z,100939.03
2023-11-24T20:27:40.957Z,100959.50
2023-11-24T20:30:12.948Z,100957.66
2023-11-24T20:32:43.239Z,100968.31
2023-11-24T20:35:13.251Z,100975.38
2023-11-24T20:37:42.210Z,100969.06
2023-11-24T20:40:11.234Z,100961.78
2023-11-24T20:42:40.156Z,100935.84
2023-11-24T20:45:10.068Z,100967.03
2023-11-24T20:47:39.322Z,100978.63
2023-11-24T20:50:12.609Z,100979.59
2023-11-24T20:52:45.028Z,100995.69
2023-11-24T20:55:14.275Z,100967.91
2023-11-24T20:57:42.446Z,100950.88
2023-11-24T21:00:12.508Z,100968.75
2023-11-24T21:02:41.627Z,100966.00
2023-11-24T21:05:10.451Z,100972.31
2023-11-24T21:07:40.756Z,100967.72
2023-11-24T21:10:12.633Z,100966.75
2023-11-24T21:12:43.015Z,100981.91
2023-11-24T21:15:12.131Z,100963.97
2023-11-24T21:17:40.490Z,100972.78
2023-11-24T21:20:11.186Z,100981.69
2023-11-24T21:22:40.845Z,100992.31
2023-11-24T21:25:09.421Z,100991.47
2023-11-24T21:27:37.428Z,100986.97
2023-11-24T21:30:07.657Z,100991.34
2023-11-24T21:32:38.519Z,100998.44
2023-11-24T21:35:07.662Z,100991.34
2023-11-24T21:37:35.769Z,100986.84
2023-11-24T21:40:11.996Z,100993.91
2023-11-24T21:42:39.969Z,100996.72
2023-11-24T21:45:10.958Z,101010.91
2023-11-24T21:47:39.075Z,101007.44
2023-11-24T21:50:08.148Z,101008.41
2023-11-24T21:52:36.861Z,101029.84
2023-11-24T21:55:07.962Z,101014.69
2023-11-24T21:57:36.107Z,101033.41
2023-11-24T22:00:06.524Z,101035.22
2023-11-24T22:02:39.336Z,101030.78
2023-11-24T22:05:10.598Z,101043.25
2023-11-24T22:07:39.038Z,101043.34
2023-11-24T22:10:10.613Z,101040.66
2023-11-24T22:12:39.318Z,101055.03
2023-11-24T22:15:10.804Z,101056.00
2023-11-24T22:17:38.900Z,101061.56
2023-11-24T22:20:11.902Z,101073.91
2023-11-24T22:22:40.905Z,101075.81
2023-11-24T22:25:12.058Z,101087.41
2023-11-24T22:27:40.133Z,101070.84
2023-11-24T22:30:09.314Z,101075.41
2023-11-24T22:32:37.419Z,101081.47
2023-11-24T22:35:08.032Z,101083.88
2023-11-24T22:37:36.538Z,101092.31
2023-11-24T22:40:06.643Z,101091.97
2023-11-24T22:42:43.286Z,101097.03
2023-11-24T22:45:12.661Z,101097.53
2023-11-24T22:47:42.925Z,101101.75
2023-11-24T22:50:12.139Z,101103.38
2023-11-24T22:52:40.357Z,101099.66
2023-11-24T22:55:09.145Z,101099.47
2023-11-24T22:57:37.946Z,101106.53
2023-11-24T23:00:30.126Z,101101.19
2023-11-24T23:02:58.503Z,101113.53
2023-11-24T23:05:27.127Z,101104.66
2023-11-24T23:07:55.225Z,101108.25
2023-11-24T23:10:23.517Z,101115.38
2023-11-24T23:12:51.492Z,101118.91
2023-11-24T23:15:20.849Z,101112.69
2023-11-24T23:17:48.987Z,101105.50
2023-11-24T23:20:17.020Z,101117.09
2023-11-24T23:22:45.090Z,101112.59
2023-11-24T23:25:13.206Z,101112.59
2023-11-24T23:27:41.669Z,101108.19
2023-11-24T23:30:13.600Z,101111.72
2023-11-24T23:32:45.092Z,101103.69
2023-11-24T23:35:13.468Z,101104.66
2023-11-24T23:37:45.113Z,101101.97
2023-11-24T23:40:15.214Z,101108.25
2023-11-24T23:42:45.668Z,101108.25
2023-11-24T23:45:15.163Z,101114.59
2023-11-24T23:47:44.941Z,101112.88
2023-11-24T23:50:14.023Z,101111.16
2023-11-24T23:52:43.195Z,101120.06
2023-11-24T23:55:11.273Z,101117.44
2023-11-24T23:57:39.268Z,101118.41
